Scullville, New Jersey
Current Conditions -  °F | °C
As of 9:54 AM on Wednesday 22 Oct 2014 (Local Time) from KACY Reporting Station
Overcast Overcast  
Wind Chill: 56°   Ceiling: 1400
Heat Index: 56°   Visibility: 10mi
Dew Point: 53°   Wind: 17mph
Humidity: 90%   Direction: 10°N
Pressure: 29.83"   Gusts: 25mph
Location:  39.4502°N, 74.7366°W
Report Text: KACY 221354Z 01015G22KT 10SM OVC014 13/12 A2983 RMK AO2 SLP099 T01330117
Loading
Personal Weather Stations






























Interactive Weather Map
Tropical Storm Tracking
New forecast layout! Learn more

10-Day Weather Forecast

Advertisements
Track Severe Weather on mobile